sensor_id;sensor_type;location;lat;lon;timestamp;P1;durP1;ratioP1;P2;durP2;ratioP2
13325;SDS011;6732;51.044;3.746;2022-12-18T00:01:17;73.00;;;52.33;;
13325;SDS011;6732;51.044;3.746;2022-12-18T00:03:47;66.27;;;50.27;;
13325;SDS011;6732;51.044;3.746;2022-12-18T00:06:14;70.97;;;50.67;;
13325;SDS011;6732;51.044;3.746;2022-12-18T00:08:41;73.13;;;52.47;;
13325;SDS011;6732;51.044;3.746;2022-12-18T00:11:08;67.53;;;48.90;;
13325;SDS011;6732;51.044;3.746;2022-12-18T00:13:39;67.73;;;49.07;;
13325;SDS011;6732;51.044;3.746;2022-12-18T00:16:06;66.40;;;47.17;;
13325;SDS011;6732;51.044;3.746;2022-12-18T00:18:34;63.43;;;45.73;;
13325;SDS011;6732;51.044;3.746;2022-12-18T00:21:00;64.73;;;48.33;;
13325;SDS011;6732;51.044;3.746;2022-12-18T00:23:28;65.77;;;48.30;;
13325;SDS011;6732;51.044;3.746;2022-12-18T00:25:58;67.33;;;46.23;;
13325;SDS011;6732;51.044;3.746;2022-12-18T00:28:28;62.43;;;44.97;;
13325;SDS011;6732;51.044;3.746;2022-12-18T00:31:01;65.37;;;44.83;;
13325;SDS011;6732;51.044;3.746;2022-12-18T00:33:31;59.63;;;44.00;;
13325;SDS011;6732;51.044;3.746;2022-12-18T00:36:01;64.20;;;45.10;;
13325;SDS011;6732;51.044;3.746;2022-12-18T00:38:28;60.00;;;42.47;;
13325;SDS011;6732;51.044;3.746;2022-12-18T00:40:54;59.47;;;41.63;;
13325;SDS011;6732;51.044;3.746;2022-12-18T00:43:20;61.37;;;43.00;;
13325;SDS011;6732;51.044;3.746;2022-12-18T00:45:46;57.60;;;40.33;;
13325;SDS011;6732;51.044;3.746;2022-12-18T00:48:12;57.77;;;40.40;;
13325;SDS011;6732;51.044;3.746;2022-12-18T00:50:38;59.60;;;40.37;;
13325;SDS011;6732;51.044;3.746;2022-12-18T00:53:04;60.60;;;41.27;;
13325;SDS011;6732;51.044;3.746;2022-12-18T00:55:30;60.83;;;41.60;;
13325;SDS011;6732;51.044;3.746;2022-12-18T00:57:56;58.43;;;40.60;;
13325;SDS011;6732;51.044;3.746;2022-12-18T01:00:21;61.13;;;41.83;;
13325;SDS011;6732;51.044;3.746;2022-12-18T01:02:48;61.43;;;40.77;;
13325;SDS011;6732;51.044;3.746;2022-12-18T01:05:14;58.73;;;39.80;;
13325;SDS011;6732;51.044;3.746;2022-12-18T01:07:40;59.27;;;41.57;;
13325;SDS011;6732;51.044;3.746;2022-12-18T01:10:07;61.03;;;41.67;;
13325;SDS011;6732;51.044;3.746;2022-12-18T01:12:34;60.60;;;41.23;;
13325;SDS011;6732;51.044;3.746;2022-12-18T01:15:00;54.83;;;40.67;;
13325;SDS011;6732;51.044;3.746;2022-12-18T01:17:26;60.17;;;39.57;;
13325;SDS011;6732;51.044;3.746;2022-12-18T01:19:52;54.73;;;39.90;;
13325;SDS011;6732;51.044;3.746;2022-12-18T01:22:18;56.30;;;40.60;;
13325;SDS011;6732;51.044;3.746;2022-12-18T01:24:44;55.93;;;38.67;;
13325;SDS011;6732;51.044;3.746;2022-12-18T01:27:10;53.93;;;37.13;;
13325;SDS011;6732;51.044;3.746;2022-12-18T01:29:36;52.90;;;37.47;;
13325;SDS011;6732;51.044;3.746;2022-12-18T01:32:02;55.33;;;37.90;;
13325;SDS011;6732;51.044;3.746;2022-12-18T01:34:28;50.60;;;35.63;;
13325;SDS011;6732;51.044;3.746;2022-12-18T01:36:54;51.63;;;37.07;;
13325;SDS011;6732;51.044;3.746;2022-12-18T01:39:19;53.33;;;36.47;;
13325;SDS011;6732;51.044;3.746;2022-12-18T01:41:46;48.57;;;34.87;;
13325;SDS011;6732;51.044;3.746;2022-12-18T01:47:38;50.80;;;34.07;;
13325;SDS011;6732;51.044;3.746;2022-12-18T01:50:25;49.20;;;33.87;;
13325;SDS011;6732;51.044;3.746;2022-12-18T01:52:56;47.67;;;32.60;;
13325;SDS011;6732;51.044;3.746;2022-12-18T01:55:26;47.20;;;31.83;;
13325;SDS011;6732;51.044;3.746;2022-12-18T01:57:56;45.30;;;31.47;;
13325;SDS011;6732;51.044;3.746;2022-12-18T02:00:24;46.03;;;31.57;;
13325;SDS011;6732;51.044;3.746;2022-12-18T02:02:51;43.30;;;31.93;;
13325;SDS011;6732;51.044;3.746;2022-12-18T02:05:18;41.93;;;30.30;;
13325;SDS011;6732;51.044;3.746;2022-12-18T02:13:23;43.47;;;29.83;;
13325;SDS011;6732;51.044;3.746;2022-12-18T02:18:38;42.27;;;30.83;;
13325;SDS011;6732;51.044;3.746;2022-12-18T02:26:55;42.70;;;29.50;;
13325;SDS011;6732;51.044;3.746;2022-12-18T02:29:25;45.93;;;31.80;;
13325;SDS011;6732;51.044;3.746;2022-12-18T02:32:04;45.53;;;30.30;;
13325;SDS011;6732;51.044;3.746;2022-12-18T02:34:34;42.77;;;30.03;;
13325;SDS011;6732;51.044;3.746;2022-12-18T02:37:04;41.63;;;29.20;;
13325;SDS011;6732;51.044;3.746;2022-12-18T02:39:34;42.60;;;30.00;;
13325;SDS011;6732;51.044;3.746;2022-12-18T02:42:02;42.80;;;30.10;;
13325;SDS011;6732;51.044;3.746;2022-12-18T02:44:49;44.20;;;29.13;;
13325;SDS011;6732;51.044;3.746;2022-12-18T02:47:17;39.43;;;28.33;;
13325;SDS011;6732;51.044;3.746;2022-12-18T02:55:02;38.90;;;27.83;;
13325;SDS011;6732;51.044;3.746;2022-12-18T02:57:56;38.40;;;26.83;;
13325;SDS011;6732;51.044;3.746;2022-12-18T03:00:43;41.20;;;27.40;;
13325;SDS011;6732;51.044;3.746;2022-12-18T03:05:57;37.60;;;28.07;;
13325;SDS011;6732;51.044;3.746;2022-12-18T03:08:29;38.53;;;26.00;;
13325;SDS011;6732;51.044;3.746;2022-12-18T03:11:01;41.13;;;27.80;;
13325;SDS011;6732;51.044;3.746;2022-12-18T03:13:33;37.30;;;26.27;;
13325;SDS011;6732;51.044;3.746;2022-12-18T03:16:10;36.97;;;25.80;;
13325;SDS011;6732;51.044;3.746;2022-12-18T03:18:47;41.30;;;27.67;;
13325;SDS011;6732;51.044;3.746;2022-12-18T03:21:29;37.47;;;26.20;;
13325;SDS011;6732;51.044;3.746;2022-12-18T03:24:11;36.80;;;25.47;;
13325;SDS011;6732;51.044;3.746;2022-12-18T03:26:37;34.70;;;25.57;;
13325;SDS011;6732;51.044;3.746;2022-12-18T03:29:09;38.33;;;27.40;;
13325;SDS011;6732;51.044;3.746;2022-12-18T03:31:40;36.67;;;26.30;;
13325;SDS011;6732;51.044;3.746;2022-12-18T03:34:13;37.97;;;26.33;;
13325;SDS011;6732;51.044;3.746;2022-12-18T03:36:47;35.40;;;25.53;;
13325;SDS011;6732;51.044;3.746;2022-12-18T03:39:13;36.03;;;25.63;;
13325;SDS011;6732;51.044;3.746;2022-12-18T03:41:52;37.73;;;25.97;;
13325;SDS011;6732;51.044;3.746;2022-12-18T03:44:28;35.90;;;24.87;;
13325;SDS011;6732;51.044;3.746;2022-12-18T03:47:08;36.10;;;24.70;;
13325;SDS011;6732;51.044;3.746;2022-12-18T03:52:18;35.83;;;24.30;;
13325;SDS011;6732;51.044;3.746;2022-12-18T03:54:55;37.70;;;24.03;;
13325;SDS011;6732;51.044;3.746;2022-12-18T03:57:24;34.67;;;24.53;;
13325;SDS011;6732;51.044;3.746;2022-12-18T03:59:55;33.50;;;24.40;;
13325;SDS011;6732;51.044;3.746;2022-12-18T04:02:26;34.80;;;23.67;;
13325;SDS011;6732;51.044;3.746;2022-12-18T04:04:55;33.10;;;23.57;;
13325;SDS011;6732;51.044;3.746;2022-12-18T04:07:24;34.13;;;24.17;;
13325;SDS011;6732;51.044;3.746;2022-12-18T04:09:51;32.93;;;24.60;;
13325;SDS011;6732;51.044;3.746;2022-12-18T04:12:24;37.37;;;25.47;;
13325;SDS011;6732;51.044;3.746;2022-12-18T04:14:51;35.57;;;24.83;;
13325;SDS011;6732;51.044;3.746;2022-12-18T04:17:17;37.83;;;24.53;;
13325;SDS011;6732;51.044;3.746;2022-12-18T04:19:43;36.43;;;24.83;;
13325;SDS011;6732;51.044;3.746;2022-12-18T04:22:10;35.40;;;24.53;;
13325;SDS011;6732;51.044;3.746;2022-12-18T04:24:36;35.40;;;24.40;;
13325;SDS011;6732;51.044;3.746;2022-12-18T04:27:02;35.97;;;25.10;;
13325;SDS011;6732;51.044;3.746;2022-12-18T04:29:29;33.80;;;24.60;;
13325;SDS011;6732;51.044;3.746;2022-12-18T04:31:55;34.77;;;23.83;;
13325;SDS011;6732;51.044;3.746;2022-12-18T04:34:21;37.23;;;25.80;;
13325;SDS011;6732;51.044;3.746;2022-12-18T04:36:47;35.73;;;25.37;;
13325;SDS011;6732;51.044;3.746;2022-12-18T04:39:13;36.23;;;24.13;;
13325;SDS011;6732;51.044;3.746;2022-12-18T04:41:40;36.47;;;25.33;;
13325;SDS011;6732;51.044;3.746;2022-12-18T04:44:06;32.57;;;23.40;;
13325;SDS011;6732;51.044;3.746;2022-12-18T04:46:32;36.90;;;24.20;;
13325;SDS011;6732;51.044;3.746;2022-12-18T04:48:58;36.10;;;24.20;;
13325;SDS011;6732;51.044;3.746;2022-12-18T04:51:24;34.90;;;25.03;;
13325;SDS011;6732;51.044;3.746;2022-12-18T04:53:50;32.67;;;22.77;;
13325;SDS011;6732;51.044;3.746;2022-12-18T04:56:16;36.03;;;24.67;;
13325;SDS011;6732;51.044;3.746;2022-12-18T04:58:43;34.57;;;23.57;;
13325;SDS011;6732;51.044;3.746;2022-12-18T05:01:10;35.63;;;24.40;;
13325;SDS011;6732;51.044;3.746;2022-12-18T05:03:37;35.50;;;24.77;;
13325;SDS011;6732;51.044;3.746;2022-12-18T05:06:04;32.20;;;22.53;;
13325;SDS011;6732;51.044;3.746;2022-12-18T05:08:31;32.73;;;23.70;;
13325;SDS011;6732;51.044;3.746;2022-12-18T05:13:29;34.40;;;23.33;;
13325;SDS011;6732;51.044;3.746;2022-12-18T05:15:55;30.70;;;22.13;;
13325;SDS011;6732;51.044;3.746;2022-12-18T05:18:24;31.90;;;21.93;;
13325;SDS011;6732;51.044;3.746;2022-12-18T05:20:51;31.57;;;22.90;;
13325;SDS011;6732;51.044;3.746;2022-12-18T05:23:18;31.50;;;22.53;;
13325;SDS011;6732;51.044;3.746;2022-12-18T05:26:03;32.70;;;22.73;;
13325;SDS011;6732;51.044;3.746;2022-12-18T05:28:31;33.27;;;22.10;;
13325;SDS011;6732;51.044;3.746;2022-12-18T05:31:00;32.43;;;22.37;;
13325;SDS011;6732;51.044;3.746;2022-12-18T05:33:29;32.13;;;22.13;;
13325;SDS011;6732;51.044;3.746;2022-12-18T05:35:57;31.60;;;21.57;;
13325;SDS011;6732;51.044;3.746;2022-12-18T05:38:24;31.73;;;22.03;;
13325;SDS011;6732;51.044;3.746;2022-12-18T05:40:51;30.83;;;22.03;;
13325;SDS011;6732;51.044;3.746;2022-12-18T05:43:18;31.47;;;22.77;;
13325;SDS011;6732;51.044;3.746;2022-12-18T05:45:47;32.63;;;23.33;;
13325;SDS011;6732;51.044;3.746;2022-12-18T05:48:13;33.63;;;22.50;;
13325;SDS011;6732;51.044;3.746;2022-12-18T05:50:40;33.33;;;22.70;;
13325;SDS011;6732;51.044;3.746;2022-12-18T05:53:07;31.00;;;22.27;;
13325;SDS011;6732;51.044;3.746;2022-12-18T05:55:37;32.47;;;23.17;;
13325;SDS011;6732;51.044;3.746;2022-12-18T05:58:05;31.17;;;21.73;;
13325;SDS011;6732;51.044;3.746;2022-12-18T06:00:33;30.87;;;21.97;;
13325;SDS011;6732;51.044;3.746;2022-12-18T06:03:00;29.30;;;21.80;;
13325;SDS011;6732;51.044;3.746;2022-12-18T06:05:27;31.93;;;21.93;;
13325;SDS011;6732;51.044;3.746;2022-12-18T06:07:53;28.93;;;20.50;;
13325;SDS011;6732;51.044;3.746;2022-12-18T06:10:19;30.13;;;21.87;;
13325;SDS011;6732;51.044;3.746;2022-12-18T06:12:45;33.53;;;22.43;;
13325;SDS011;6732;51.044;3.746;2022-12-18T06:15:11;29.70;;;21.13;;
13325;SDS011;6732;51.044;3.746;2022-12-18T06:17:36;31.10;;;21.57;;
13325;SDS011;6732;51.044;3.746;2022-12-18T06:20:03;29.53;;;21.07;;
13325;SDS011;6732;51.044;3.746;2022-12-18T06:22:32;29.67;;;20.77;;
13325;SDS011;6732;51.044;3.746;2022-12-18T06:24:58;31.03;;;20.60;;
13325;SDS011;6732;51.044;3.746;2022-12-18T06:27:24;28.27;;;20.23;;
13325;SDS011;6732;51.044;3.746;2022-12-18T06:29:50;28.67;;;20.77;;
13325;SDS011;6732;51.044;3.746;2022-12-18T06:32:16;29.93;;;20.23;;
13325;SDS011;6732;51.044;3.746;2022-12-18T06:34:42;27.80;;;20.27;;
13325;SDS011;6732;51.044;3.746;2022-12-18T06:37:08;29.33;;;21.27;;
13325;SDS011;6732;51.044;3.746;2022-12-18T06:39:34;27.40;;;20.07;;
13325;SDS011;6732;51.044;3.746;2022-12-18T06:41:59;27.67;;;20.00;;
13325;SDS011;6732;51.044;3.746;2022-12-18T06:44:26;27.83;;;19.07;;
13325;SDS011;6732;51.044;3.746;2022-12-18T06:46:52;27.43;;;19.87;;
13325;SDS011;6732;51.044;3.746;2022-12-18T06:49:17;24.73;;;19.17;;
13325;SDS011;6732;51.044;3.746;2022-12-18T06:51:44;25.80;;;18.47;;
13325;SDS011;6732;51.044;3.746;2022-12-18T06:54:10;25.37;;;19.60;;
13325;SDS011;6732;51.044;3.746;2022-12-18T06:56:36;27.83;;;19.13;;
13325;SDS011;6732;51.044;3.746;2022-12-18T06:59:02;27.87;;;20.00;;
13325;SDS011;6732;51.044;3.746;2022-12-18T07:01:28;28.10;;;18.73;;
13325;SDS011;6732;51.044;3.746;2022-12-18T07:03:55;25.83;;;18.73;;
13325;SDS011;6732;51.044;3.746;2022-12-18T07:06:22;27.27;;;19.17;;
13325;SDS011;6732;51.044;3.746;2022-12-18T07:08:50;27.57;;;19.10;;
13325;SDS011;6732;51.044;3.746;2022-12-18T07:11:17;26.70;;;18.60;;
13325;SDS011;6732;51.044;3.746;2022-12-18T07:13:44;25.53;;;18.50;;
13325;SDS011;6732;51.044;3.746;2022-12-18T07:16:11;27.93;;;18.60;;
13325;SDS011;6732;51.044;3.746;2022-12-18T07:18:41;23.10;;;17.77;;
13325;SDS011;6732;51.044;3.746;2022-12-18T07:21:08;25.40;;;18.03;;
13325;SDS011;6732;51.044;3.746;2022-12-18T07:23:35;25.67;;;18.47;;
13325;SDS011;6732;51.044;3.746;2022-12-18T07:26:02;25.90;;;18.23;;
13325;SDS011;6732;51.044;3.746;2022-12-18T07:28:29;25.00;;;18.47;;
13325;SDS011;6732;51.044;3.746;2022-12-18T07:30:55;24.13;;;18.60;;
13325;SDS011;6732;51.044;3.746;2022-12-18T07:33:21;22.10;;;16.80;;
13325;SDS011;6732;51.044;3.746;2022-12-18T07:35:47;25.07;;;18.57;;
13325;SDS011;6732;51.044;3.746;2022-12-18T07:38:12;22.40;;;16.97;;
13325;SDS011;6732;51.044;3.746;2022-12-18T07:40:38;22.90;;;17.67;;
13325;SDS011;6732;51.044;3.746;2022-12-18T07:43:04;23.97;;;18.03;;
13325;SDS011;6732;51.044;3.746;2022-12-18T07:45:30;22.57;;;17.43;;
13325;SDS011;6732;51.044;3.746;2022-12-18T07:47:56;25.03;;;18.33;;
13325;SDS011;6732;51.044;3.746;2022-12-18T07:50:22;24.40;;;18.97;;
13325;SDS011;6732;51.044;3.746;2022-12-18T07:52:49;24.30;;;18.03;;
13325;SDS011;6732;51.044;3.746;2022-12-18T07:55:15;24.03;;;17.10;;
13325;SDS011;6732;51.044;3.746;2022-12-18T07:57:41;23.00;;;17.63;;
13325;SDS011;6732;51.044;3.746;2022-12-18T08:00:07;21.60;;;16.73;;
13325;SDS011;6732;51.044;3.746;2022-12-18T08:02:33;22.37;;;16.97;;
13325;SDS011;6732;51.044;3.746;2022-12-18T08:04:59;22.13;;;17.33;;
13325;SDS011;6732;51.044;3.746;2022-12-18T08:07:25;22.17;;;16.93;;
13325;SDS011;6732;51.044;3.746;2022-12-18T08:09:51;22.93;;;17.03;;
13325;SDS011;6732;51.044;3.746;2022-12-18T08:12:17;23.05;;;18.50;;
13325;SDS011;6732;51.044;3.746;2022-12-18T08:14:43;23.00;;;17.53;;
13325;SDS011;6732;51.044;3.746;2022-12-18T08:17:09;20.40;;;16.90;;
13325;SDS011;6732;51.044;3.746;2022-12-18T08:19:35;22.27;;;18.13;;
13325;SDS011;6732;51.044;3.746;2022-12-18T08:22:01;21.73;;;18.20;;
13325;SDS011;6732;51.044;3.746;2022-12-18T08:24:26;20.93;;;16.67;;
13325;SDS011;6732;51.044;3.746;2022-12-18T08:26:52;22.20;;;16.13;;
13325;SDS011;6732;51.044;3.746;2022-12-18T08:29:18;21.37;;;16.20;;
13325;SDS011;6732;51.044;3.746;2022-12-18T08:31:45;22.13;;;15.70;;
13325;SDS011;6732;51.044;3.746;2022-12-18T08:34:10;23.30;;;16.60;;
13325;SDS011;6732;51.044;3.746;2022-12-18T08:36:36;21.73;;;16.83;;
13325;SDS011;6732;51.044;3.746;2022-12-18T08:39:02;22.80;;;16.27;;
13325;SDS011;6732;51.044;3.746;2022-12-18T08:41:28;22.37;;;15.87;;
13325;SDS011;6732;51.044;3.746;2022-12-18T08:43:54;20.57;;;15.10;;
13325;SDS011;6732;51.044;3.746;2022-12-18T08:46:39;18.30;;;15.17;;
13325;SDS011;6732;51.044;3.746;2022-12-18T08:49:07;20.07;;;14.83;;
13325;SDS011;6732;51.044;3.746;2022-12-18T08:51:34;20.37;;;15.43;;
13325;SDS011;6732;51.044;3.746;2022-12-18T08:54:01;22.47;;;15.67;;
13325;SDS011;6732;51.044;3.746;2022-12-18T08:56:27;19.37;;;14.97;;
13325;SDS011;6732;51.044;3.746;2022-12-18T08:58:55;21.40;;;15.37;;
13325;SDS011;6732;51.044;3.746;2022-12-18T09:01:21;19.40;;;14.70;;
13325;SDS011;6732;51.044;3.746;2022-12-18T09:03:48;20.67;;;16.43;;
13325;SDS011;6732;51.044;3.746;2022-12-18T09:06:15;19.20;;;15.30;;
13325;SDS011;6732;51.044;3.746;2022-12-18T09:08:43;20.67;;;15.43;;
13325;SDS011;6732;51.044;3.746;2022-12-18T09:11:19;20.60;;;14.97;;
13325;SDS011;6732;51.044;3.746;2022-12-18T09:13:47;19.53;;;15.03;;
13325;SDS011;6732;51.044;3.746;2022-12-18T09:16:13;17.67;;;14.17;;
13325;SDS011;6732;51.044;3.746;2022-12-18T09:18:39;20.77;;;15.00;;
13325;SDS011;6732;51.044;3.746;2022-12-18T09:21:12;20.27;;;15.47;;
13325;SDS011;6732;51.044;3.746;2022-12-18T09:23:43;19.77;;;15.20;;
13325;SDS011;6732;51.044;3.746;2022-12-18T09:26:09;20.43;;;15.50;;
13325;SDS011;6732;51.044;3.746;2022-12-18T09:28:36;19.43;;;15.57;;
13325;SDS011;6732;51.044;3.746;2022-12-18T09:31:05;21.37;;;15.40;;
13325;SDS011;6732;51.044;3.746;2022-12-18T09:33:33;20.30;;;15.13;;
13325;SDS011;6732;51.044;3.746;2022-12-18T09:36:03;20.77;;;15.97;;
13325;SDS011;6732;51.044;3.746;2022-12-18T09:38:30;19.47;;;15.40;;
13325;SDS011;6732;51.044;3.746;2022-12-18T09:40:57;20.23;;;15.10;;
13325;SDS011;6732;51.044;3.746;2022-12-18T09:43:51;19.30;;;15.37;;
13325;SDS011;6732;51.044;3.746;2022-12-18T09:46:36;20.83;;;15.57;;
13325;SDS011;6732;51.044;3.746;2022-12-18T09:49:06;19.03;;;14.77;;
13325;SDS011;6732;51.044;3.746;2022-12-18T09:51:39;21.23;;;16.03;;
13325;SDS011;6732;51.044;3.746;2022-12-18T09:54:32;19.90;;;15.87;;
13325;SDS011;6732;51.044;3.746;2022-12-18T09:57:06;19.27;;;15.40;;
13325;SDS011;6732;51.044;3.746;2022-12-18T09:59:46;18.23;;;15.20;;
13325;SDS011;6732;51.044;3.746;2022-12-18T10:02:30;18.87;;;15.80;;
13325;SDS011;6732;51.044;3.746;2022-12-18T10:10:14;18.93;;;15.90;;
13325;SDS011;6732;51.044;3.746;2022-12-18T10:15:46;20.17;;;15.30;;
13325;SDS011;6732;51.044;3.746;2022-12-18T10:21:02;19.77;;;15.77;;
13325;SDS011;6732;51.044;3.746;2022-12-18T10:26:27;18.87;;;15.70;;
13325;SDS011;6732;51.044;3.746;2022-12-18T10:28:53;22.37;;;16.67;;
13325;SDS011;6732;51.044;3.746;2022-12-18T10:31:20;21.47;;;16.43;;
13325;SDS011;6732;51.044;3.746;2022-12-18T10:33:48;23.87;;;18.50;;
13325;SDS011;6732;51.044;3.746;2022-12-18T10:36:14;21.33;;;17.87;;
13325;SDS011;6732;51.044;3.746;2022-12-18T10:38:40;21.80;;;17.33;;
13325;SDS011;6732;51.044;3.746;2022-12-18T10:41:22;22.77;;;17.97;;
13325;SDS011;6732;51.044;3.746;2022-12-18T10:46:46;20.30;;;15.80;;
13325;SDS011;6732;51.044;3.746;2022-12-18T10:49:22;19.97;;;16.27;;
13325;SDS011;6732;51.044;3.746;2022-12-18T10:51:51;20.50;;;16.87;;
13325;SDS011;6732;51.044;3.746;2022-12-18T10:54:36;19.43;;;15.83;;
13325;SDS011;6732;51.044;3.746;2022-12-18T10:59:55;21.70;;;16.87;;
13325;SDS011;6732;51.044;3.746;2022-12-18T11:02:33;23.03;;;16.80;;
13325;SDS011;6732;51.044;3.746;2022-12-18T11:05:00;20.97;;;16.77;;
13325;SDS011;6732;51.044;3.746;2022-12-18T11:07:46;20.40;;;16.97;;
13325;SDS011;6732;51.044;3.746;2022-12-18T11:10:16;20.60;;;16.87;;
13325;SDS011;6732;51.044;3.746;2022-12-18T11:12:45;21.40;;;16.50;;
13325;SDS011;6732;51.044;3.746;2022-12-18T11:15:29;19.47;;;16.37;;
13325;SDS011;6732;51.044;3.746;2022-12-18T11:17:56;21.87;;;16.73;;
13325;SDS011;6732;51.044;3.746;2022-12-18T11:20:32;21.83;;;17.33;;
13325;SDS011;6732;51.044;3.746;2022-12-18T11:23:01;21.40;;;17.30;;
13325;SDS011;6732;51.044;3.746;2022-12-18T11:25:30;22.07;;;17.97;;
13325;SDS011;6732;51.044;3.746;2022-12-18T11:28:01;21.20;;;17.27;;
13325;SDS011;6732;51.044;3.746;2022-12-18T11:30:33;24.03;;;18.47;;
13325;SDS011;6732;51.044;3.746;2022-12-18T11:35:39;20.27;;;17.83;;
13325;SDS011;6732;51.044;3.746;2022-12-18T11:40:50;20.83;;;18.30;;
13325;SDS011;6732;51.044;3.746;2022-12-18T11:46:17;19.27;;;16.43;;
13325;SDS011;6732;51.044;3.746;2022-12-18T11:48:52;19.83;;;16.37;;
13325;SDS011;6732;51.044;3.746;2022-12-18T11:51:47;20.83;;;15.60;;
13325;SDS011;6732;51.044;3.746;2022-12-18T11:54:18;20.13;;;15.93;;
13325;SDS011;6732;51.044;3.746;2022-12-18T11:56:48;19.63;;;15.80;;
13325;SDS011;6732;51.044;3.746;2022-12-18T12:07:04;20.23;;;16.87;;
13325;SDS011;6732;51.044;3.746;2022-12-18T12:09:39;21.73;;;17.47;;
13325;SDS011;6732;51.044;3.746;2022-12-18T12:15:01;20.67;;;16.50;;
13325;SDS011;6732;51.044;3.746;2022-12-18T12:17:45;22.80;;;17.50;;
13325;SDS011;6732;51.044;3.746;2022-12-18T12:20:20;22.77;;;18.07;;
13325;SDS011;6732;51.044;3.746;2022-12-18T12:25:49;22.13;;;16.53;;
13325;SDS011;6732;51.044;3.746;2022-12-18T12:34:09;22.53;;;17.50;;
13325;SDS011;6732;51.044;3.746;2022-12-18T12:36:52;22.20;;;18.60;;
13325;SDS011;6732;51.044;3.746;2022-12-18T12:39:22;23.37;;;17.73;;
13325;SDS011;6732;51.044;3.746;2022-12-18T12:41:55;23.40;;;18.53;;
13325;SDS011;6732;51.044;3.746;2022-12-18T12:44:44;24.53;;;19.60;;
13325;SDS011;6732;51.044;3.746;2022-12-18T12:47:26;23.97;;;18.70;;
13325;SDS011;6732;51.044;3.746;2022-12-18T12:49:56;23.40;;;18.70;;
13325;SDS011;6732;51.044;3.746;2022-12-18T12:52:28;23.60;;;18.17;;
13325;SDS011;6732;51.044;3.746;2022-12-18T12:54:57;25.00;;;19.87;;
13325;SDS011;6732;51.044;3.746;2022-12-18T12:57:35;25.03;;;21.10;;
13325;SDS011;6732;51.044;3.746;2022-12-18T13:00:11;27.13;;;21.57;;
13325;SDS011;6732;51.044;3.746;2022-12-18T13:02:56;25.87;;;19.70;;
13325;SDS011;6732;51.044;3.746;2022-12-18T13:10:31;26.53;;;20.93;;
13325;SDS011;6732;51.044;3.746;2022-12-18T13:23:01;26.77;;;21.57;;
13325;SDS011;6732;51.044;3.746;2022-12-18T13:33:40;29.20;;;22.87;;
13325;SDS011;6732;51.044;3.746;2022-12-18T13:36:15;29.80;;;22.90;;
13325;SDS011;6732;51.044;3.746;2022-12-18T13:38:47;31.23;;;23.90;;
13325;SDS011;6732;51.044;3.746;2022-12-18T13:41:33;29.73;;;23.03;;
13325;SDS011;6732;51.044;3.746;2022-12-18T13:46:55;33.17;;;24.10;;
13325;SDS011;6732;51.044;3.746;2022-12-18T13:49:43;30.83;;;23.00;;
13325;SDS011;6732;51.044;3.746;2022-12-18T13:52:15;32.17;;;24.43;;
13325;SDS011;6732;51.044;3.746;2022-12-18T13:54:52;29.60;;;23.40;;
13325;SDS011;6732;51.044;3.746;2022-12-18T13:57:38;31.63;;;24.50;;
13325;SDS011;6732;51.044;3.746;2022-12-18T14:02:47;33.13;;;24.20;;
13325;SDS011;6732;51.044;3.746;2022-12-18T14:05:29;32.57;;;24.37;;
13325;SDS011;6732;51.044;3.746;2022-12-18T14:08:11;31.63;;;24.43;;
13325;SDS011;6732;51.044;3.746;2022-12-18T14:10:43;32.03;;;23.67;;
13325;SDS011;6732;51.044;3.746;2022-12-18T14:13:15;32.47;;;25.63;;
13325;SDS011;6732;51.044;3.746;2022-12-18T14:15:47;31.50;;;24.10;;
13325;SDS011;6732;51.044;3.746;2022-12-18T14:20:46;33.00;;;23.93;;
13325;SDS011;6732;51.044;3.746;2022-12-18T14:23:30;31.27;;;24.07;;
13325;SDS011;6732;51.044;3.746;2022-12-18T14:25:58;31.27;;;23.03;;
13325;SDS011;6732;51.044;3.746;2022-12-18T14:28:25;33.37;;;24.60;;
13325;SDS011;6732;51.044;3.746;2022-12-18T14:33:47;30.10;;;23.67;;
13325;SDS011;6732;51.044;3.746;2022-12-18T14:36:17;31.90;;;23.33;;
13325;SDS011;6732;51.044;3.746;2022-12-18T14:38:49;32.03;;;24.77;;
13325;SDS011;6732;51.044;3.746;2022-12-18T14:41:23;32.10;;;23.43;;
13325;SDS011;6732;51.044;3.746;2022-12-18T14:43:51;34.83;;;25.33;;
13325;SDS011;6732;51.044;3.746;2022-12-18T14:46:29;31.53;;;23.97;;
13325;SDS011;6732;51.044;3.746;2022-12-18T14:48:56;35.07;;;24.97;;
13325;SDS011;6732;51.044;3.746;2022-12-18T14:51:23;31.30;;;23.70;;
13325;SDS011;6732;51.044;3.746;2022-12-18T14:56:22;33.03;;;25.53;;
13325;SDS011;6732;51.044;3.746;2022-12-18T14:58:53;32.93;;;24.17;;
13325;SDS011;6732;51.044;3.746;2022-12-18T15:01:24;30.53;;;22.80;;
13325;SDS011;6732;51.044;3.746;2022-12-18T15:03:54;33.03;;;23.63;;
13325;SDS011;6732;51.044;3.746;2022-12-18T15:06:26;32.13;;;24.93;;
13325;SDS011;6732;51.044;3.746;2022-12-18T15:08:58;33.20;;;23.80;;
13325;SDS011;6732;51.044;3.746;2022-12-18T15:13:58;32.93;;;24.77;;
13325;SDS011;6732;51.044;3.746;2022-12-18T15:16:25;33.90;;;24.47;;
13325;SDS011;6732;51.044;3.746;2022-12-18T15:18:51;32.30;;;24.60;;
13325;SDS011;6732;51.044;3.746;2022-12-18T15:21:19;33.10;;;23.90;;
13325;SDS011;6732;51.044;3.746;2022-12-18T15:23:47;32.03;;;23.30;;
13325;SDS011;6732;51.044;3.746;2022-12-18T15:26:16;31.90;;;24.47;;
13325;SDS011;6732;51.044;3.746;2022-12-18T15:28:44;35.77;;;24.90;;
13325;SDS011;6732;51.044;3.746;2022-12-18T15:34:12;36.13;;;23.80;;
13325;SDS011;6732;51.044;3.746;2022-12-18T15:36:32;31.30;;;23.27;;
13325;SDS011;6732;51.044;3.746;2022-12-18T15:39:02;32.77;;;23.77;;
13325;SDS011;6732;51.044;3.746;2022-12-18T15:41:30;34.10;;;24.20;;
13325;SDS011;6732;51.044;3.746;2022-12-18T15:43:58;33.47;;;24.60;;
13325;SDS011;6732;51.044;3.746;2022-12-18T15:46:25;33.00;;;24.43;;
13325;SDS011;6732;51.044;3.746;2022-12-18T15:48:52;34.47;;;24.00;;
13325;SDS011;6732;51.044;3.746;2022-12-18T15:51:21;33.53;;;24.03;;
13325;SDS011;6732;51.044;3.746;2022-12-18T15:53:50;33.60;;;24.03;;
13325;SDS011;6732;51.044;3.746;2022-12-18T15:56:18;33.10;;;25.23;;
13325;SDS011;6732;51.044;3.746;2022-12-18T15:59:10;34.50;;;24.60;;
13325;SDS011;6732;51.044;3.746;2022-12-18T16:01:38;31.97;;;23.97;;
13325;SDS011;6732;51.044;3.746;2022-12-18T16:04:04;33.33;;;23.87;;
13325;SDS011;6732;51.044;3.746;2022-12-18T16:06:30;31.90;;;23.30;;
13325;SDS011;6732;51.044;3.746;2022-12-18T16:08:56;36.27;;;25.30;;
13325;SDS011;6732;51.044;3.746;2022-12-18T16:11:23;33.60;;;24.73;;
13325;SDS011;6732;51.044;3.746;2022-12-18T16:14:04;33.93;;;25.17;;
13325;SDS011;6732;51.044;3.746;2022-12-18T16:16:45;31.60;;;23.07;;
13325;SDS011;6732;51.044;3.746;2022-12-18T16:19:12;35.00;;;25.07;;
13325;SDS011;6732;51.044;3.746;2022-12-18T16:21:38;33.63;;;24.83;;
13325;SDS011;6732;51.044;3.746;2022-12-18T16:24:04;33.40;;;24.37;;
13325;SDS011;6732;51.044;3.746;2022-12-18T16:26:31;33.13;;;24.40;;
13325;SDS011;6732;51.044;3.746;2022-12-18T16:28:56;35.77;;;23.97;;
13325;SDS011;6732;51.044;3.746;2022-12-18T16:31:23;35.17;;;23.87;;
13325;SDS011;6732;51.044;3.746;2022-12-18T16:33:48;34.57;;;23.93;;
13325;SDS011;6732;51.044;3.746;2022-12-18T16:36:14;32.67;;;24.13;;
13325;SDS011;6732;51.044;3.746;2022-12-18T16:38:40;35.10;;;23.93;;
13325;SDS011;6732;51.044;3.746;2022-12-18T16:41:15;32.27;;;23.40;;
13325;SDS011;6732;51.044;3.746;2022-12-18T16:43:58;34.40;;;24.13;;
13325;SDS011;6732;51.044;3.746;2022-12-18T16:46:24;31.13;;;23.67;;
13325;SDS011;6732;51.044;3.746;2022-12-18T16:48:50;34.60;;;23.80;;